sensor_id;sensor_type;location;lat;lon;timestamp;P1;durP1;ratioP1;P2;durP2;ratioP2
20480;SDS011;10399;50.754;3.366;2022-07-05T00:00:26;5.10;;;1.70;;
20480;SDS011;10399;50.754;3.366;2022-07-05T00:02:53;7.07;;;1.92;;
20480;SDS011;10399;50.754;3.366;2022-07-05T00:05:20;7.70;;;2.22;;
20480;SDS011;10399;50.754;3.366;2022-07-05T00:07:47;5.22;;;2.17;;
20480;SDS011;10399;50.754;3.366;2022-07-05T00:10:14;8.00;;;1.90;;
20480;SDS011;10399;50.754;3.366;2022-07-05T00:12:41;5.22;;;2.20;;
20480;SDS011;10399;50.754;3.366;2022-07-05T00:15:08;4.10;;;2.40;;
20480;SDS011;10399;50.754;3.366;2022-07-05T00:17:35;7.10;;;2.00;;
20480;SDS011;10399;50.754;3.366;2022-07-05T00:20:03;6.07;;;1.85;;
20480;SDS011;10399;50.754;3.366;2022-07-05T00:22:31;5.97;;;2.15;;
20480;SDS011;10399;50.754;3.366;2022-07-05T00:24:58;4.07;;;2.35;;
20480;SDS011;10399;50.754;3.366;2022-07-05T00:27:25;3.00;;;1.65;;
20480;SDS011;10399;50.754;3.366;2022-07-05T00:29:51;6.13;;;2.25;;
20480;SDS011;10399;50.754;3.366;2022-07-05T00:32:18;3.47;;;1.85;;
20480;SDS011;10399;50.754;3.366;2022-07-05T00:34:45;5.05;;;2.20;;
20480;SDS011;10399;50.754;3.366;2022-07-05T00:37:13;6.60;;;2.50;;
20480;SDS011;10399;50.754;3.366;2022-07-05T00:39:40;7.65;;;2.35;;
20480;SDS011;10399;50.754;3.366;2022-07-05T00:42:08;8.40;;;2.33;;
20480;SDS011;10399;50.754;3.366;2022-07-05T00:44:36;5.88;;;2.03;;
20480;SDS011;10399;50.754;3.366;2022-07-05T00:47:06;3.40;;;1.65;;
20480;SDS011;10399;50.754;3.366;2022-07-05T00:49:35;6.15;;;2.35;;
20480;SDS011;10399;50.754;3.366;2022-07-05T00:52:04;6.70;;;1.92;;
20480;SDS011;10399;50.754;3.366;2022-07-05T00:54:47;6.13;;;2.10;;
20480;SDS011;10399;50.754;3.366;2022-07-05T00:57:15;4.85;;;2.22;;
20480;SDS011;10399;50.754;3.366;2022-07-05T00:59:43;7.90;;;1.70;;
20480;SDS011;10399;50.754;3.366;2022-07-05T01:02:10;7.75;;;2.35;;
20480;SDS011;10399;50.754;3.366;2022-07-05T01:04:44;6.32;;;2.53;;
20480;SDS011;10399;50.754;3.366;2022-07-05T01:07:12;11.88;;;2.88;;
20480;SDS011;10399;50.754;3.366;2022-07-05T01:09:39;11.30;;;2.92;;
20480;SDS011;10399;50.754;3.366;2022-07-05T01:12:07;5.95;;;2.72;;
20480;SDS011;10399;50.754;3.366;2022-07-05T01:14:35;4.35;;;1.95;;
20480;SDS011;10399;50.754;3.366;2022-07-05T01:17:02;4.45;;;2.30;;
20480;SDS011;10399;50.754;3.366;2022-07-05T01:19:30;6.82;;;2.63;;
20480;SDS011;10399;50.754;3.366;2022-07-05T01:21:58;4.35;;;2.35;;
20480;SDS011;10399;50.754;3.366;2022-07-05T01:27:01;4.00;;;2.45;;
20480;SDS011;10399;50.754;3.366;2022-07-05T01:29:28;4.05;;;2.03;;
20480;SDS011;10399;50.754;3.366;2022-07-05T01:31:55;6.13;;;2.13;;
20480;SDS011;10399;50.754;3.366;2022-07-05T01:34:22;5.40;;;2.10;;
20480;SDS011;10399;50.754;3.366;2022-07-05T01:36:49;6.22;;;2.65;;
20480;SDS011;10399;50.754;3.366;2022-07-05T01:39:16;5.55;;;2.00;;
20480;SDS011;10399;50.754;3.366;2022-07-05T01:41:46;4.72;;;2.38;;
20480;SDS011;10399;50.754;3.366;2022-07-05T01:44:14;4.70;;;2.55;;
20480;SDS011;10399;50.754;3.366;2022-07-05T01:46:41;12.60;;;2.78;;
20480;SDS011;10399;50.754;3.366;2022-07-05T01:49:11;7.75;;;2.60;;
20480;SDS011;10399;50.754;3.366;2022-07-05T01:51:49;6.43;;;2.42;;
20480;SDS011;10399;50.754;3.366;2022-07-05T01:54:29;9.03;;;2.60;;
20480;SDS011;10399;50.754;3.366;2022-07-05T02:01:51;7.70;;;2.50;;
20480;SDS011;10399;50.754;3.366;2022-07-05T02:04:18;5.18;;;2.47;;
20480;SDS011;10399;50.754;3.366;2022-07-05T02:06:46;5.22;;;2.70;;
20480;SDS011;10399;50.754;3.366;2022-07-05T02:09:13;7.55;;;2.65;;
20480;SDS011;10399;50.754;3.366;2022-07-05T02:11:40;4.85;;;2.55;;
20480;SDS011;10399;50.754;3.366;2022-07-05T02:14:08;5.90;;;2.47;;
20480;SDS011;10399;50.754;3.366;2022-07-05T02:16:34;8.23;;;2.97;;
20480;SDS011;10399;50.754;3.366;2022-07-05T02:19:02;6.25;;;2.60;;
20480;SDS011;10399;50.754;3.366;2022-07-05T02:21:29;6.68;;;2.67;;
20480;SDS011;10399;50.754;3.366;2022-07-05T02:23:56;6.93;;;2.78;;
20480;SDS011;10399;50.754;3.366;2022-07-05T02:26:23;7.00;;;2.95;;
20480;SDS011;10399;50.754;3.366;2022-07-05T02:28:51;3.95;;;2.45;;
20480;SDS011;10399;50.754;3.366;2022-07-05T02:31:18;6.82;;;2.60;;
20480;SDS011;10399;50.754;3.366;2022-07-05T02:33:46;6.70;;;2.65;;
20480;SDS011;10399;50.754;3.366;2022-07-05T02:36:13;8.48;;;2.40;;
20480;SDS011;10399;50.754;3.366;2022-07-05T02:38:40;6.63;;;2.95;;
20480;SDS011;10399;50.754;3.366;2022-07-05T02:41:09;7.20;;;2.58;;
20480;SDS011;10399;50.754;3.366;2022-07-05T02:43:37;9.30;;;2.92;;
20480;SDS011;10399;50.754;3.366;2022-07-05T02:46:05;9.93;;;2.60;;
20480;SDS011;10399;50.754;3.366;2022-07-05T02:48:34;6.97;;;2.40;;
20480;SDS011;10399;50.754;3.366;2022-07-05T02:51:03;4.60;;;2.33;;
20480;SDS011;10399;50.754;3.366;2022-07-05T02:53:30;6.80;;;3.08;;
20480;SDS011;10399;50.754;3.366;2022-07-05T02:55:57;5.35;;;2.50;;
20480;SDS011;10399;50.754;3.366;2022-07-05T02:58:24;6.63;;;2.60;;
20480;SDS011;10399;50.754;3.366;2022-07-05T03:00:51;6.50;;;2.58;;
20480;SDS011;10399;50.754;3.366;2022-07-05T03:03:18;7.60;;;2.88;;
20480;SDS011;10399;50.754;3.366;2022-07-05T03:05:45;5.55;;;2.58;;
20480;SDS011;10399;50.754;3.366;2022-07-05T03:08:12;6.95;;;2.40;;
20480;SDS011;10399;50.754;3.366;2022-07-05T03:10:39;10.77;;;3.00;;
20480;SDS011;10399;50.754;3.366;2022-07-05T03:13:06;13.95;;;2.65;;
20480;SDS011;10399;50.754;3.366;2022-07-05T03:15:33;31.98;;;4.85;;
20480;SDS011;10399;50.754;3.366;2022-07-05T03:18:00;10.43;;;2.97;;
20480;SDS011;10399;50.754;3.366;2022-07-05T03:20:27;8.02;;;2.47;;
20480;SDS011;10399;50.754;3.366;2022-07-05T03:22:55;7.82;;;2.78;;
20480;SDS011;10399;50.754;3.366;2022-07-05T03:25:23;7.45;;;3.60;;
20480;SDS011;10399;50.754;3.366;2022-07-05T03:27:50;7.57;;;2.47;;
20480;SDS011;10399;50.754;3.366;2022-07-05T03:30:17;6.30;;;2.55;;
20480;SDS011;10399;50.754;3.366;2022-07-05T03:32:44;2.85;;;2.50;;
20480;SDS011;10399;50.754;3.366;2022-07-05T03:35:11;6.70;;;2.60;;
20480;SDS011;10399;50.754;3.366;2022-07-05T03:37:38;11.48;;;3.00;;
20480;SDS011;10399;50.754;3.366;2022-07-05T03:40:05;12.98;;;3.55;;
20480;SDS011;10399;50.754;3.366;2022-07-05T03:42:33;7.22;;;2.95;;
20480;SDS011;10399;50.754;3.366;2022-07-05T03:45:02;6.88;;;2.88;;
20480;SDS011;10399;50.754;3.366;2022-07-05T03:47:30;9.35;;;3.00;;
20480;SDS011;10399;50.754;3.366;2022-07-05T03:49:57;10.95;;;2.97;;
20480;SDS011;10399;50.754;3.366;2022-07-05T03:52:24;7.63;;;3.00;;
20480;SDS011;10399;50.754;3.366;2022-07-05T03:54:51;7.10;;;3.30;;
20480;SDS011;10399;50.754;3.366;2022-07-05T03:57:19;7.60;;;2.83;;
20480;SDS011;10399;50.754;3.366;2022-07-05T03:59:46;15.85;;;4.35;;
20480;SDS011;10399;50.754;3.366;2022-07-05T04:02:13;8.65;;;3.45;;
20480;SDS011;10399;50.754;3.366;2022-07-05T04:04:40;9.07;;;3.42;;
20480;SDS011;10399;50.754;3.366;2022-07-05T04:07:08;13.10;;;3.70;;
20480;SDS011;10399;50.754;3.366;2022-07-05T04:09:35;11.63;;;3.60;;
20480;SDS011;10399;50.754;3.366;2022-07-05T04:12:02;16.13;;;3.75;;
20480;SDS011;10399;50.754;3.366;2022-07-05T04:14:29;9.18;;;3.47;;
20480;SDS011;10399;50.754;3.366;2022-07-05T04:16:57;6.55;;;3.58;;
20480;SDS011;10399;50.754;3.366;2022-07-05T04:19:23;10.95;;;3.35;;
20480;SDS011;10399;50.754;3.366;2022-07-05T04:21:50;9.25;;;3.40;;
20480;SDS011;10399;50.754;3.366;2022-07-05T04:24:17;16.17;;;4.40;;
20480;SDS011;10399;50.754;3.366;2022-07-05T04:26:45;9.73;;;4.05;;
20480;SDS011;10399;50.754;3.366;2022-07-05T04:29:12;7.57;;;3.47;;
20480;SDS011;10399;50.754;3.366;2022-07-05T04:31:39;8.98;;;3.88;;
20480;SDS011;10399;50.754;3.366;2022-07-05T04:34:06;10.05;;;3.50;;
20480;SDS011;10399;50.754;3.366;2022-07-05T04:36:33;9.70;;;3.80;;
20480;SDS011;10399;50.754;3.366;2022-07-05T04:39:00;10.27;;;3.72;;
20480;SDS011;10399;50.754;3.366;2022-07-05T04:41:27;13.95;;;4.35;;
20480;SDS011;10399;50.754;3.366;2022-07-05T04:43:54;8.20;;;3.50;;
20480;SDS011;10399;50.754;3.366;2022-07-05T04:46:21;18.27;;;4.18;;
20480;SDS011;10399;50.754;3.366;2022-07-05T04:48:48;12.52;;;4.28;;
20480;SDS011;10399;50.754;3.366;2022-07-05T04:51:15;8.35;;;3.70;;
20480;SDS011;10399;50.754;3.366;2022-07-05T04:53:43;11.95;;;4.30;;
20480;SDS011;10399;50.754;3.366;2022-07-05T04:56:09;7.15;;;3.67;;
20480;SDS011;10399;50.754;3.366;2022-07-05T04:58:36;9.25;;;3.83;;
20480;SDS011;10399;50.754;3.366;2022-07-05T05:01:03;12.90;;;4.28;;
20480;SDS011;10399;50.754;3.366;2022-07-05T05:03:30;6.88;;;3.83;;
20480;SDS011;10399;50.754;3.366;2022-07-05T05:05:57;13.02;;;4.53;;
20480;SDS011;10399;50.754;3.366;2022-07-05T05:08:25;11.27;;;4.05;;
20480;SDS011;10399;50.754;3.366;2022-07-05T05:10:52;8.43;;;3.85;;
20480;SDS011;10399;50.754;3.366;2022-07-05T05:13:19;18.95;;;4.38;;
20480;SDS011;10399;50.754;3.366;2022-07-05T05:15:46;11.43;;;4.47;;
20480;SDS011;10399;50.754;3.366;2022-07-05T05:18:13;15.15;;;4.72;;
20480;SDS011;10399;50.754;3.366;2022-07-05T05:20:41;17.45;;;4.95;;
20480;SDS011;10399;50.754;3.366;2022-07-05T05:23:08;11.27;;;5.00;;
20480;SDS011;10399;50.754;3.366;2022-07-05T05:25:35;14.82;;;4.63;;
20480;SDS011;10399;50.754;3.366;2022-07-05T05:28:03;12.68;;;4.60;;
20480;SDS011;10399;50.754;3.366;2022-07-05T05:30:30;10.20;;;5.10;;
20480;SDS011;10399;50.754;3.366;2022-07-05T05:32:57;16.17;;;5.38;;
20480;SDS011;10399;50.754;3.366;2022-07-05T05:35:24;16.35;;;4.60;;
20480;SDS011;10399;50.754;3.366;2022-07-05T05:37:52;9.88;;;4.75;;
20480;SDS011;10399;50.754;3.366;2022-07-05T05:40:22;11.10;;;5.45;;
20480;SDS011;10399;50.754;3.366;2022-07-05T05:42:51;11.38;;;4.82;;
20480;SDS011;10399;50.754;3.366;2022-07-05T05:45:20;12.43;;;4.63;;
20480;SDS011;10399;50.754;3.366;2022-07-05T05:50:25;12.45;;;5.18;;
20480;SDS011;10399;50.754;3.366;2022-07-05T05:52:52;10.32;;;4.35;;
20480;SDS011;10399;50.754;3.366;2022-07-05T05:55:20;16.73;;;5.22;;
20480;SDS011;10399;50.754;3.366;2022-07-05T05:57:48;19.27;;;6.07;;
20480;SDS011;10399;50.754;3.366;2022-07-05T06:00:15;25.05;;;5.93;;
20480;SDS011;10399;50.754;3.366;2022-07-05T06:02:43;12.75;;;5.45;;
20480;SDS011;10399;50.754;3.366;2022-07-05T06:05:12;20.65;;;6.50;;
20480;SDS011;10399;50.754;3.366;2022-07-05T06:10:15;16.88;;;5.95;;
20480;SDS011;10399;50.754;3.366;2022-07-05T06:12:53;17.35;;;5.53;;
20480;SDS011;10399;50.754;3.366;2022-07-05T06:15:22;19.42;;;5.82;;
20480;SDS011;10399;50.754;3.366;2022-07-05T06:17:49;18.70;;;5.78;;
20480;SDS011;10399;50.754;3.366;2022-07-05T06:20:17;12.43;;;5.80;;
20480;SDS011;10399;50.754;3.366;2022-07-05T06:22:46;14.23;;;5.60;;
20480;SDS011;10399;50.754;3.366;2022-07-05T06:25:13;12.27;;;5.90;;
20480;SDS011;10399;50.754;3.366;2022-07-05T06:27:53;27.67;;;6.97;;
20480;SDS011;10399;50.754;3.366;2022-07-05T06:30:23;19.85;;;6.00;;
20480;SDS011;10399;50.754;3.366;2022-07-05T06:32:51;26.77;;;6.85;;
20480;SDS011;10399;50.754;3.366;2022-07-05T06:35:19;18.27;;;5.82;;
20480;SDS011;10399;50.754;3.366;2022-07-05T06:37:54;17.35;;;6.10;;
20480;SDS011;10399;50.754;3.366;2022-07-05T06:40:33;17.73;;;6.93;;
20480;SDS011;10399;50.754;3.366;2022-07-05T06:43:06;17.73;;;6.53;;
20480;SDS011;10399;50.754;3.366;2022-07-05T06:45:34;17.83;;;6.88;;
20480;SDS011;10399;50.754;3.366;2022-07-05T06:48:02;20.17;;;6.75;;
20480;SDS011;10399;50.754;3.366;2022-07-05T06:50:30;16.55;;;7.38;;
20480;SDS011;10399;50.754;3.366;2022-07-05T06:52:59;20.10;;;7.07;;
20480;SDS011;10399;50.754;3.366;2022-07-05T06:55:26;23.55;;;6.85;;
20480;SDS011;10399;50.754;3.366;2022-07-05T06:57:58;12.52;;;6.45;;
20480;SDS011;10399;50.754;3.366;2022-07-05T07:00:42;16.20;;;6.93;;
20480;SDS011;10399;50.754;3.366;2022-07-05T07:03:30;12.13;;;6.40;;
20480;SDS011;10399;50.754;3.366;2022-07-05T07:06:17;25.08;;;7.32;;
20480;SDS011;10399;50.754;3.366;2022-07-05T07:08:45;17.33;;;7.00;;
20480;SDS011;10399;50.754;3.366;2022-07-05T07:11:30;15.88;;;6.50;;
20480;SDS011;10399;50.754;3.366;2022-07-05T07:13:57;13.13;;;6.25;;
20480;SDS011;10399;50.754;3.366;2022-07-05T07:16:24;18.13;;;5.65;;
20480;SDS011;10399;50.754;3.366;2022-07-05T07:18:51;14.00;;;6.50;;
20480;SDS011;10399;50.754;3.366;2022-07-05T07:21:36;22.45;;;6.38;;
20480;SDS011;10399;50.754;3.366;2022-07-05T07:24:04;40.35;;;8.60;;
20480;SDS011;10399;50.754;3.366;2022-07-05T07:26:32;19.10;;;6.63;;
20480;SDS011;10399;50.754;3.366;2022-07-05T07:29:19;16.52;;;6.32;;
20480;SDS011;10399;50.754;3.366;2022-07-05T07:31:46;15.57;;;6.18;;
20480;SDS011;10399;50.754;3.366;2022-07-05T07:34:13;17.15;;;7.20;;
20480;SDS011;10399;50.754;3.366;2022-07-05T07:36:41;21.40;;;6.40;;
20480;SDS011;10399;50.754;3.366;2022-07-05T07:39:08;19.83;;;5.70;;
20480;SDS011;10399;50.754;3.366;2022-07-05T07:41:35;18.60;;;6.05;;
20480;SDS011;10399;50.754;3.366;2022-07-05T07:44:02;14.63;;;5.47;;
20480;SDS011;10399;50.754;3.366;2022-07-05T07:46:29;17.83;;;6.40;;
20480;SDS011;10399;50.754;3.366;2022-07-05T07:48:57;16.63;;;6.47;;
20480;SDS011;10399;50.754;3.366;2022-07-05T07:51:24;15.70;;;5.75;;
20480;SDS011;10399;50.754;3.366;2022-07-05T07:53:51;14.38;;;5.95;;
20480;SDS011;10399;50.754;3.366;2022-07-05T07:56:18;15.10;;;5.85;;
20480;SDS011;10399;50.754;3.366;2022-07-05T07:58:46;16.83;;;5.50;;
20480;SDS011;10399;50.754;3.366;2022-07-05T08:01:14;25.95;;;6.22;;
20480;SDS011;10399;50.754;3.366;2022-07-05T08:03:41;12.75;;;5.30;;
20480;SDS011;10399;50.754;3.366;2022-07-05T08:06:09;22.35;;;5.93;;
20480;SDS011;10399;50.754;3.366;2022-07-05T08:08:37;16.08;;;6.00;;
20480;SDS011;10399;50.754;3.366;2022-07-05T08:11:05;22.08;;;6.40;;
20480;SDS011;10399;50.754;3.366;2022-07-05T08:13:35;11.10;;;6.05;;
20480;SDS011;10399;50.754;3.366;2022-07-05T08:16:02;8.20;;;4.65;;
20480;SDS011;10399;50.754;3.366;2022-07-05T08:18:29;14.23;;;4.80;;
20480;SDS011;10399;50.754;3.366;2022-07-05T08:21:15;11.27;;;4.50;;
20480;SDS011;10399;50.754;3.366;2022-07-05T08:23:58;9.57;;;3.75;;
20480;SDS011;10399;50.754;3.366;2022-07-05T08:26:27;11.77;;;3.83;;
20480;SDS011;10399;50.754;3.366;2022-07-05T08:28:57;8.23;;;3.65;;
20480;SDS011;10399;50.754;3.366;2022-07-05T08:31:35;9.25;;;4.53;;
20480;SDS011;10399;50.754;3.366;2022-07-05T08:34:03;8.98;;;4.07;;
20480;SDS011;10399;50.754;3.366;2022-07-05T08:36:31;7.63;;;4.25;;
20480;SDS011;10399;50.754;3.366;2022-07-05T08:38:58;10.40;;;3.50;;
20480;SDS011;10399;50.754;3.366;2022-07-05T08:41:25;10.10;;;3.85;;
20480;SDS011;10399;50.754;3.366;2022-07-05T08:43:52;7.88;;;2.95;;
20480;SDS011;10399;50.754;3.366;2022-07-05T08:46:21;10.13;;;3.85;;
20480;SDS011;10399;50.754;3.366;2022-07-05T08:48:50;17.13;;;3.25;;
20480;SDS011;10399;50.754;3.366;2022-07-05T08:51:19;8.00;;;3.17;;
20480;SDS011;10399;50.754;3.366;2022-07-05T08:53:51;8.35;;;3.30;;
20480;SDS011;10399;50.754;3.366;2022-07-05T08:56:19;7.88;;;2.92;;
20480;SDS011;10399;50.754;3.366;2022-07-05T08:59:04;7.10;;;3.17;;
20480;SDS011;10399;50.754;3.366;2022-07-05T09:01:31;8.15;;;3.00;;
20480;SDS011;10399;50.754;3.366;2022-07-05T09:04:01;8.50;;;3.33;;
20480;SDS011;10399;50.754;3.366;2022-07-05T09:06:34;7.53;;;2.85;;
20480;SDS011;10399;50.754;3.366;2022-07-05T09:09:04;7.93;;;2.78;;
20480;SDS011;10399;50.754;3.366;2022-07-05T09:11:34;8.20;;;2.72;;
20480;SDS011;10399;50.754;3.366;2022-07-05T09:14:23;8.73;;;2.95;;
20480;SDS011;10399;50.754;3.366;2022-07-05T09:16:54;13.60;;;2.97;;
20480;SDS011;10399;50.754;3.366;2022-07-05T09:19:23;5.93;;;3.25;;
20480;SDS011;10399;50.754;3.366;2022-07-05T09:22:00;5.05;;;1.90;;
20480;SDS011;10399;50.754;3.366;2022-07-05T09:24:31;5.18;;;1.90;;
20480;SDS011;10399;50.754;3.366;2022-07-05T09:27:02;4.50;;;2.00;;
20480;SDS011;10399;50.754;3.366;2022-07-05T09:29:33;7.07;;;2.15;;
20480;SDS011;10399;50.754;3.366;2022-07-05T09:32:09;6.18;;;2.20;;
20480;SDS011;10399;50.754;3.366;2022-07-05T09:34:50;7.80;;;2.70;;
20480;SDS011;10399;50.754;3.366;2022-07-05T09:37:16;7.68;;;2.55;;
20480;SDS011;10399;50.754;3.366;2022-07-05T09:39:43;3.03;;;1.80;;
20480;SDS011;10399;50.754;3.366;2022-07-05T09:44:46;4.07;;;2.17;;
20480;SDS011;10399;50.754;3.366;2022-07-05T09:47:15;6.32;;;2.40;;
20480;SDS011;10399;50.754;3.366;2022-07-05T09:50:09;9.23;;;2.38;;
20480;SDS011;10399;50.754;3.366;2022-07-05T09:52:39;4.38;;;2.15;;
20480;SDS011;10399;50.754;3.366;2022-07-05T09:55:08;7.78;;;2.40;;
20480;SDS011;10399;50.754;3.366;2022-07-05T09:57:35;4.95;;;2.25;;
20480;SDS011;10399;50.754;3.366;2022-07-05T10:00:08;4.47;;;2.05;;
20480;SDS011;10399;50.754;3.366;2022-07-05T10:02:39;3.70;;;2.10;;
20480;SDS011;10399;50.754;3.366;2022-07-05T10:10:34;4.93;;;2.60;;
20480;SDS011;10399;50.754;3.366;2022-07-05T10:13:02;3.58;;;2.20;;
20480;SDS011;10399;50.754;3.366;2022-07-05T10:15:34;6.40;;;2.13;;
20480;SDS011;10399;50.754;3.366;2022-07-05T10:18:07;2.67;;;1.52;;
20480;SDS011;10399;50.754;3.366;2022-07-05T10:23:04;4.57;;;2.22;;
20480;SDS011;10399;50.754;3.366;2022-07-05T10:25:32;6.00;;;2.70;;
20480;SDS011;10399;50.754;3.366;2022-07-05T10:28:02;6.47;;;1.90;;
20480;SDS011;10399;50.754;3.366;2022-07-05T10:30:30;3.33;;;1.85;;
20480;SDS011;10399;50.754;3.366;2022-07-05T10:32:58;4.80;;;1.90;;
20480;SDS011;10399;50.754;3.366;2022-07-05T10:35:27;2.15;;;1.20;;
20480;SDS011;10399;50.754;3.366;2022-07-05T10:37:54;4.72;;;1.55;;
20480;SDS011;10399;50.754;3.366;2022-07-05T10:40:23;3.25;;;1.35;;
20480;SDS011;10399;50.754;3.366;2022-07-05T10:42:59;1.63;;;1.27;;
20480;SDS011;10399;50.754;3.366;2022-07-05T10:45:32;8.00;;;1.27;;
20480;SDS011;10399;50.754;3.366;2022-07-05T10:48:14;1.58;;;1.10;;
20480;SDS011;10399;50.754;3.366;2022-07-05T10:50:52;5.32;;;1.17;;
20480;SDS011;10399;50.754;3.366;2022-07-05T10:56:14;2.17;;;1.13;;
20480;SDS011;10399;50.754;3.366;2022-07-05T10:58:42;2.30;;;1.30;;
20480;SDS011;10399;50.754;3.366;2022-07-05T11:11:39;2.03;;;1.10;;
20480;SDS011;10399;50.754;3.366;2022-07-05T11:14:38;3.90;;;1.35;;
20480;SDS011;10399;50.754;3.366;2022-07-05T11:20:07;6.65;;;1.20;;
20480;SDS011;10399;50.754;3.366;2022-07-05T11:22:36;6.38;;;1.10;;
20480;SDS011;10399;50.754;3.366;2022-07-05T11:25:05;2.95;;;0.93;;
20480;SDS011;10399;50.754;3.366;2022-07-05T11:27:33;2.38;;;1.13;;
20480;SDS011;10399;50.754;3.366;2022-07-05T11:30:01;1.67;;;1.20;;
20480;SDS011;10399;50.754;3.366;2022-07-05T11:35:17;2.65;;;1.02;;
20480;SDS011;10399;50.754;3.366;2022-07-05T11:37:58;4.85;;;1.40;;
20480;SDS011;10399;50.754;3.366;2022-07-05T11:40:53;5.72;;;1.40;;
20480;SDS011;10399;50.754;3.366;2022-07-05T11:43:28;5.60;;;1.17;;
20480;SDS011;10399;50.754;3.366;2022-07-05T11:45:57;2.58;;;1.20;;
20480;SDS011;10399;50.754;3.366;2022-07-05T11:48:29;2.40;;;1.10;;
20480;SDS011;10399;50.754;3.366;2022-07-05T11:50:56;4.43;;;1.02;;
20480;SDS011;10399;50.754;3.366;2022-07-05T11:53:28;6.32;;;1.65;;
20480;SDS011;10399;50.754;3.366;2022-07-05T11:56:17;5.25;;;1.00;;
20480;SDS011;10399;50.754;3.366;2022-07-05T11:58:44;2.38;;;1.13;;
20480;SDS011;10399;50.754;3.366;2022-07-05T12:01:11;2.25;;;1.08;;
20480;SDS011;10399;50.754;3.366;2022-07-05T12:03:38;2.50;;;1.00;;
20480;SDS011;10399;50.754;3.366;2022-07-05T12:06:24;2.25;;;0.80;;
20480;SDS011;10399;50.754;3.366;2022-07-05T12:09:03;4.45;;;1.70;;
20480;SDS011;10399;50.754;3.366;2022-07-05T12:11:31;2.97;;;1.00;;
20480;SDS011;10399;50.754;3.366;2022-07-05T12:14:20;5.22;;;1.30;;
20480;SDS011;10399;50.754;3.366;2022-07-05T12:16:49;1.80;;;1.00;;
20480;SDS011;10399;50.754;3.366;2022-07-05T12:19:36;4.78;;;1.17;;
20480;SDS011;10399;50.754;3.366;2022-07-05T12:22:03;4.80;;;1.23;;
20480;SDS011;10399;50.754;3.366;2022-07-05T12:24:31;2.15;;;1.00;;
20480;SDS011;10399;50.754;3.366;2022-07-05T12:27:00;3.63;;;1.13;;
20480;SDS011;10399;50.754;3.366;2022-07-05T12:29:27;2.20;;;1.00;;
20480;SDS011;10399;50.754;3.366;2022-07-05T12:31:58;3.00;;;1.10;;
20480;SDS011;10399;50.754;3.366;2022-07-05T12:34:27;3.63;;;1.08;;
20480;SDS011;10399;50.754;3.366;2022-07-05T12:36:56;4.57;;;1.17;;
20480;SDS011;10399;50.754;3.366;2022-07-05T12:39:24;4.57;;;1.23;;
20480;SDS011;10399;50.754;3.366;2022-07-05T12:41:51;2.50;;;1.30;;
20480;SDS011;10399;50.754;3.366;2022-07-05T12:44:19;6.65;;;1.55;;
20480;SDS011;10399;50.754;3.366;2022-07-05T12:46:46;5.22;;;1.30;;
20480;SDS011;10399;50.754;3.366;2022-07-05T12:49:18;2.20;;;1.20;;
20480;SDS011;10399;50.754;3.366;2022-07-05T12:51:45;3.33;;;1.13;;
20480;SDS011;10399;50.754;3.366;2022-07-05T12:54:22;5.07;;;1.20;;
20480;SDS011;10399;50.754;3.366;2022-07-05T12:57:08;2.42;;;1.02;;
20480;SDS011;10399;50.754;3.366;2022-07-05T13:00:00;2.33;;;0.98;;
20480;SDS011;10399;50.754;3.366;2022-07-05T13:02:35;3.63;;;1.10;;
20480;SDS011;10399;50.754;3.366;2022-07-05T13:05:07;4.43;;;1.00;;
20480;SDS011;10399;50.754;3.366;2022-07-05T13:07:42;4.15;;;1.23;;
20480;SDS011;10399;50.754;3.366;2022-07-05T13:10:13;5.35;;;1.17;;
20480;SDS011;10399;50.754;3.366;2022-07-05T13:12:46;2.15;;;0.90;;
20480;SDS011;10399;50.754;3.366;2022-07-05T13:15:14;8.20;;;1.17;;
20480;SDS011;10399;50.754;3.366;2022-07-05T13:17:41;2.35;;;1.08;;
20480;SDS011;10399;50.754;3.366;2022-07-05T13:20:09;2.35;;;1.10;;
20480;SDS011;10399;50.754;3.366;2022-07-05T13:22:37;3.72;;;0.80;;
20480;SDS011;10399;50.754;3.366;2022-07-05T13:25:05;2.45;;;0.70;;
20480;SDS011;10399;50.754;3.366;2022-07-05T13:27:32;3.42;;;0.90;;
20480;SDS011;10399;50.754;3.366;2022-07-05T13:30:01;2.33;;;1.00;;
20480;SDS011;10399;50.754;3.366;2022-07-05T13:32:29;2.65;;;1.23;;
20480;SDS011;10399;50.754;3.366;2022-07-05T13:34:57;6.50;;;1.02;;
20480;SDS011;10399;50.754;3.366;2022-07-05T13:37:24;2.42;;;0.90;;
20480;SDS011;10399;50.754;3.366;2022-07-05T13:39:51;2.90;;;1.45;;
20480;SDS011;10399;50.754;3.366;2022-07-05T13:42:18;1.08;;;0.90;;
20480;SDS011;10399;50.754;3.366;2022-07-05T13:44:45;3.80;;;0.80;;
20480;SDS011;10399;50.754;3.366;2022-07-05T13:47:12;2.65;;;0.68;;
20480;SDS011;10399;50.754;3.366;2022-07-05T13:49:39;2.35;;;0.82;;
20480;SDS011;10399;50.754;3.366;2022-07-05T13:52:06;2.45;;;0.70;;
20480;SDS011;10399;50.754;3.366;2022-07-05T13:54:33;3.72;;;0.95;;
20480;SDS011;10399;50.754;3.366;2022-07-05T13:57:01;1.50;;;0.70;;
20480;SDS011;10399;50.754;3.366;2022-07-05T13:59:28;2.88;;;0.93;;
20480;SDS011;10399;50.754;3.366;2022-07-05T14:01:55;2.97;;;0.85;;
20480;SDS011;10399;50.754;3.366;2022-07-05T14:04:23;3.10;;;1.42;;
20480;SDS011;10399;50.754;3.366;2022-07-05T14:06:53;6.32;;;1.20;;
20480;SDS011;10399;50.754;3.366;2022-07-05T14:09:20;2.72;;;0.70;;
20480;SDS011;10399;50.754;3.366;2022-07-05T14:11:53;2.83;;;0.88;;
20480;SDS011;10399;50.754;3.366;2022-07-05T14:14:20;3.75;;;0.90;;
20480;SDS011;10399;50.754;3.366;2022-07-05T14:16:47;3.70;;;1.00;;
20480;SDS011;10399;50.754;3.366;2022-07-05T14:19:14;4.90;;;0.90;;
20480;SDS011;10399;50.754;3.366;2022-07-05T14:21:41;3.50;;;0.75;;
20480;SDS011;10399;50.754;3.366;2022-07-05T14:24:13;2.90;;;0.70;;
20480;SDS011;10399;50.754;3.366;2022-07-05T14:26:40;2.92;;;0.80;;
20480;SDS011;10399;50.754;3.366;2022-07-05T14:29:07;1.77;;;0.73;;
20480;SDS011;10399;50.754;3.366;2022-07-05T14:31:35;1.52;;;0.80;;
20480;SDS011;10399;50.754;3.366;2022-07-05T14:34:02;5.35;;;1.10;;
20480;SDS011;10399;50.754;3.366;2022-07-05T14:36:29;3.55;;;0.70;;
20480;SDS011;10399;50.754;3.366;2022-07-05T14:38:56;2.70;;;1.00;;
20480;SDS011;10399;50.754;3.366;2022-07-05T14:41:25;2.70;;;1.15;;
20480;SDS011;10399;50.754;3.366;2022-07-05T14:43:52;2.78;;;0.70;;
20480;SDS011;10399;50.754;3.366;2022-07-05T14:46:20;1.80;;;0.73;;
20480;SDS011;10399;50.754;3.366;2022-07-05T14:48:48;1.65;;;0.80;;
20480;SDS011;10399;50.754;3.366;2022-07-05T14:51:15;3.65;;;0.98;;
20480;SDS011;10399;50.754;3.366;2022-07-05T14:53:42;6.70;;;0.95;;
20480;SDS011;10399;50.754;3.366;2022-07-05T14:56:11;2.25;;;0.70;;
20480;SDS011;10399;50.754;3.366;2022-07-05T14:58:39;1.40;;;0.70;;
20480;SDS011;10399;50.754;3.366;2022-07-05T15:01:06;2.92;;;0.82;;
20480;SDS011;10399;50.754;3.366;2022-07-05T15:03:33;1.80;;;0.77;;
20480;SDS011;10399;50.754;3.366;2022-07-05T15:06:00;3.67;;;1.02;;
20480;SDS011;10399;50.754;3.366;2022-07-05T15:08:30;2.38;;;0.70;;
20480;SDS011;10399;50.754;3.366;2022-07-05T15:10:57;4.28;;;0.93;;
20480;SDS011;10399;50.754;3.366;2022-07-05T15:13:25;3.00;;;0.80;;
20480;SDS011;10399;50.754;3.366;2022-07-05T15:15:53;9.15;;;1.00;;
20480;SDS011;10399;50.754;3.366;2022-07-05T15:18:20;3.15;;;0.80;;
20480;SDS011;10399;50.754;3.366;2022-07-05T15:20:48;1.30;;;0.77;;
20480;SDS011;10399;50.754;3.366;2022-07-05T15:23:24;3.40;;;0.80;;
20480;SDS011;10399;50.754;3.366;2022-07-05T15:25:54;4.68;;;0.70;;
20480;SDS011;10399;50.754;3.366;2022-07-05T15:28:21;1.35;;;0.60;;
20480;SDS011;10399;50.754;3.366;2022-07-05T15:30:48;3.33;;;0.70;;
20480;SDS011;10399;50.754;3.366;2022-07-05T15:33:15;1.20;;;0.60;;
20480;SDS011;10399;50.754;3.366;2022-07-05T15:35:43;3.80;;;1.05;;
20480;SDS011;10399;50.754;3.366;2022-07-05T15:38:10;2.72;;;0.90;;